createdAt,value
2017-08-31T00:00:32.452Z,0
2017-08-31T00:01:32.504Z,0
2017-08-31T00:02:32.468Z,0
2017-08-31T00:03:32.493Z,0
2017-08-31T00:04:32.526Z,0
2017-08-31T00:05:32.523Z,0
2017-08-31T00:06:32.521Z,0
2017-08-31T00:07:32.456Z,0
2017-08-31T00:08:32.530Z,0
2017-08-31T00:09:32.514Z,0
2017-08-31T00:10:32.465Z,0
2017-08-31T00:11:32.411Z,0
2017-08-31T00:12:32.437Z,0
2017-08-31T00:13:32.459Z,0
2017-08-31T00:14:32.455Z,0
2017-08-31T00:15:32.407Z,0
2017-08-31T00:16:32.500Z,0
2017-08-31T00:17:32.456Z,0
2017-08-31T00:18:32.460Z,0
2017-08-31T00:19:32.418Z,0
2017-08-31T00:20:32.458Z,0
2017-08-31T00:21:32.449Z,0
2017-08-31T00:22:32.511Z,0
2017-08-31T00:23:32.448Z,0
2017-08-31T00:24:32.462Z,0
2017-08-31T00:25:32.479Z,0
2017-08-31T00:26:32.465Z,0
2017-08-31T00:27:32.445Z,0
2017-08-31T00:28:32.425Z,0
2017-08-31T00:29:32.412Z,0
2017-08-31T00:30:32.453Z,0
2017-08-31T00:31:32.444Z,0
2017-08-31T00:32:32.472Z,0
2017-08-31T00:33:32.493Z,0
2017-08-31T00:34:32.483Z,0
2017-08-31T00:35:32.487Z,0
2017-08-31T00:36:32.453Z,0
2017-08-31T00:37:32.472Z,0
2017-08-31T00:38:32.544Z,0
2017-08-31T00:39:32.452Z,0
2017-08-31T00:40:32.443Z,0
2017-08-31T00:41:32.446Z,0
2017-08-31T00:42:32.474Z,0
2017-08-31T00:43:32.568Z,0
2017-08-31T00:44:32.449Z,0
2017-08-31T00:45:32.479Z,0
2017-08-31T00:46:32.452Z,0
2017-08-31T00:47:32.475Z,0
2017-08-31T00:48:32.517Z,0
2017-08-31T00:49:32.511Z,0
2017-08-31T00:50:32.517Z,0
2017-08-31T00:51:32.457Z,0
2017-08-31T00:52:32.463Z,0
2017-08-31T00:53:32.561Z,0
2017-08-31T00:54:32.498Z,0
2017-08-31T00:55:32.497Z,0
2017-08-31T00:56:32.516Z,0
2017-08-31T00:57:32.495Z,0
2017-08-31T00:58:32.561Z,0
2017-08-31T00:59:32.550Z,0
2017-08-31T01:00:32.490Z,0
2017-08-31T01:01:32.466Z,0
2017-08-31T01:02:32.469Z,0
2017-08-31T01:03:32.553Z,0
2017-08-31T01:04:32.523Z,0
2017-08-31T01:05:32.501Z,0
2017-08-31T01:06:32.474Z,0
2017-08-31T01:07:32.560Z,0
2017-08-31T01:08:32.524Z,0
2017-08-31T01:09:32.507Z,0
2017-08-31T01:10:32.524Z,0
2017-08-31T01:11:32.498Z,0
2017-08-31T01:12:32.563Z,0
2017-08-31T01:13:32.509Z,0
2017-08-31T01:14:32.562Z,0
2017-08-31T01:15:32.528Z,0
2017-08-31T01:16:32.512Z,0
2017-08-31T01:17:32.566Z,0
2017-08-31T01:18:32.512Z,0
2017-08-31T01:19:32.552Z,0
2017-08-31T01:20:32.504Z,0
2017-08-31T01:21:32.502Z,0
2017-08-31T01:22:32.483Z,0
2017-08-31T01:23:32.576Z,0
2017-08-31T01:24:32.512Z,0
2017-08-31T01:25:32.499Z,0
2017-08-31T01:26:32.479Z,0
2017-08-31T01:27:32.573Z,0
2017-08-31T01:28:32.488Z,0
2017-08-31T01:29:32.580Z,0
2017-08-31T01:30:32.476Z,0
2017-08-31T01:31:32.544Z,0
2017-08-31T01:32:32.506Z,0
2017-08-31T01:33:32.476Z,0
2017-08-31T01:34:32.498Z,0
2017-08-31T01:35:32.476Z,0
2017-08-31T01:36:32.487Z,0
2017-08-31T01:37:32.504Z,0
2017-08-31T01:38:32.439Z,0
2017-08-31T01:39:32.461Z,0
2017-08-31T01:40:32.496Z,0
2017-08-31T01:41:32.501Z,0
2017-08-31T01:42:32.545Z,0
2017-08-31T01:43:32.490Z,0
2017-08-31T01:44:32.489Z,0
2017-08-31T01:45:32.598Z,0
2017-08-31T01:46:32.495Z,0
2017-08-31T01:47:32.601Z,0
2017-08-31T01:48:32.496Z,0
2017-08-31T01:49:32.565Z,0
2017-08-31T01:50:32.517Z,0
2017-08-31T01:51:32.490Z,0
2017-08-31T01:52:32.521Z,0
2017-08-31T01:53:32.471Z,0
2017-08-31T01:54:32.501Z,0
2017-08-31T01:55:32.519Z,0
2017-08-31T01:56:32.501Z,0
2017-08-31T01:57:32.502Z,0
2017-08-31T01:58:32.527Z,0
2017-08-31T01:59:32.458Z,0
2017-08-31T02:00:32.500Z,0
2017-08-31T02:01:32.565Z,0
2017-08-31T02:02:32.569Z,0
2017-08-31T02:03:32.561Z,0
2017-08-31T02:04:32.566Z,0
2017-08-31T02:05:32.534Z,0
2017-08-31T02:06:32.530Z,0
2017-08-31T02:07:32.528Z,0
2017-08-31T02:08:32.597Z,0
2017-08-31T02:09:32.528Z,0
2017-08-31T02:10:32.595Z,0
2017-08-31T02:11:32.545Z,0
2017-08-31T02:12:32.529Z,0
2017-08-31T02:13:32.515Z,0
2017-08-31T02:14:32.546Z,0
2017-08-31T02:15:32.576Z,0
2017-08-31T02:16:32.514Z,0
2017-08-31T02:17:32.601Z,0
2017-08-31T02:18:32.515Z,0
2017-08-31T02:19:32.568Z,0
2017-08-31T02:20:32.494Z,0
2017-08-31T02:21:32.454Z,0
2017-08-31T02:22:32.530Z,0
2017-08-31T02:23:32.450Z,0
2017-08-31T02:24:32.509Z,0
2017-08-31T02:25:32.530Z,0
2017-08-31T02:26:32.511Z,0
2017-08-31T02:27:32.532Z,0
2017-08-31T02:28:32.514Z,0
2017-08-31T02:29:32.521Z,0
2017-08-31T02:30:32.516Z,0
2017-08-31T02:31:32.533Z,0
2017-08-31T02:32:32.528Z,0
2017-08-31T02:33:32.552Z,0
2017-08-31T02:34:32.555Z,0
2017-08-31T02:35:32.610Z,0
2017-08-31T02:36:32.560Z,0
2017-08-31T02:37:32.525Z,0
2017-08-31T02:38:32.621Z,0
2017-08-31T02:39:32.596Z,0
2017-08-31T02:40:32.621Z,0
2017-08-31T02:41:32.530Z,0
2017-08-31T02:42:32.594Z,0
2017-08-31T02:43:32.660Z,0
2017-08-31T02:44:32.623Z,0
2017-08-31T02:45:32.573Z,0
2017-08-31T02:46:32.622Z,0
2017-08-31T02:47:32.539Z,0
2017-08-31T02:48:32.629Z,0
2017-08-31T02:49:32.528Z,0
2017-08-31T02:50:32.599Z,0
2017-08-31T02:51:32.526Z,0
2017-08-31T02:52:32.582Z,0
2017-08-31T02:53:32.560Z,0
2017-08-31T02:54:32.506Z,0
2017-08-31T02:55:32.514Z,0
2017-08-31T02:56:32.544Z,0
2017-08-31T02:57:32.512Z,0
2017-08-31T02:58:32.506Z,0
2017-08-31T02:59:32.509Z,0
2017-08-31T03:00:32.590Z,0
2017-08-31T03:01:32.533Z,0
2017-08-31T03:02:32.556Z,0
2017-08-31T03:03:32.611Z,0
2017-08-31T03:04:32.594Z,0
2017-08-31T03:05:32.534Z,0
2017-08-31T03:06:32.565Z,0
2017-08-31T03:07:32.569Z,0
2017-08-31T03:08:32.598Z,0
2017-08-31T03:09:32.609Z,0
2017-08-31T03:10:32.671Z,0
2017-08-31T03:11:32.569Z,0
2017-08-31T03:12:32.555Z,0
2017-08-31T03:13:32.584Z,0
2017-08-31T03:14:32.555Z,0
2017-08-31T03:15:32.635Z,0
2017-08-31T03:16:32.584Z,0
2017-08-31T03:17:32.646Z,0
2017-08-31T03:18:32.582Z,0
2017-08-31T03:19:32.586Z,0
2017-08-31T03:20:32.582Z,0
2017-08-31T03:21:32.572Z,0
2017-08-31T03:22:32.590Z,0
2017-08-31T03:23:32.625Z,0
2017-08-31T03:24:32.619Z,0
2017-08-31T03:25:32.577Z,0
2017-08-31T03:26:32.591Z,0
2017-08-31T03:27:32.644Z,0
2017-08-31T03:28:32.577Z,0
2017-08-31T03:29:32.609Z,0
2017-08-31T03:30:32.589Z,0
2017-08-31T03:31:32.593Z,0
2017-08-31T03:32:32.657Z,0
2017-08-31T03:33:32.594Z,0
2017-08-31T03:34:32.652Z,0
2017-08-31T03:35:32.593Z,0
2017-08-31T03:36:32.653Z,0
2017-08-31T03:37:32.612Z,0
2017-08-31T03:38:32.629Z,0
2017-08-31T03:39:32.582Z,0
2017-08-31T03:40:32.624Z,0
2017-08-31T03:41:32.588Z,0
2017-08-31T03:42:32.599Z,0
2017-08-31T03:43:32.588Z,0
2017-08-31T03:44:32.662Z,0
2017-08-31T03:45:32.590Z,0
2017-08-31T03:46:32.600Z,0
2017-08-31T03:47:32.631Z,0
2017-08-31T03:48:32.604Z,0
2017-08-31T03:49:32.598Z,0
2017-08-31T03:50:32.538Z,0
2017-08-31T03:51:32.564Z,0
2017-08-31T03:52:32.586Z,0
2017-08-31T03:53:32.574Z,0
2017-08-31T03:54:32.563Z,0
2017-08-31T03:55:32.586Z,0
2017-08-31T03:56:32.564Z,0
2017-08-31T03:57:32.582Z,0
2017-08-31T03:58:32.715Z,0
2017-08-31T03:59:32.522Z,0
2017-08-31T04:00:32.564Z,0
2017-08-31T04:01:32.568Z,0
2017-08-31T04:02:32.629Z,0
2017-08-31T04:03:32.572Z,0
2017-08-31T04:04:32.637Z,0
2017-08-31T04:05:32.569Z,0
2017-08-31T04:06:32.636Z,0
2017-08-31T04:07:32.597Z,0
2017-08-31T04:08:32.596Z,0
2017-08-31T04:09:32.600Z,0
2017-08-31T04:10:32.596Z,0
2017-08-31T04:11:32.633Z,0
2017-08-31T04:12:32.602Z,0
2017-08-31T04:13:32.599Z,0
2017-08-31T04:14:32.575Z,0
2017-08-31T04:15:32.602Z,0
2017-08-31T04:16:32.601Z,0
2017-08-31T04:17:32.580Z,0
2017-08-31T04:18:32.637Z,0
2017-08-31T04:19:32.658Z,0
2017-08-31T04:20:32.638Z,0
2017-08-31T04:21:32.618Z,0
2017-08-31T04:22:32.587Z,0
2017-08-31T04:23:32.586Z,0
2017-08-31T04:24:32.593Z,0
2017-08-31T04:25:32.659Z,0
2017-08-31T04:26:32.680Z,0
2017-08-31T04:27:32.626Z,0
2017-08-31T04:28:32.691Z,0
2017-08-31T04:29:32.681Z,0
2017-08-31T04:30:32.614Z,0
2017-08-31T04:31:32.649Z,0
2017-08-31T04:32:32.651Z,0
2017-08-31T04:33:32.611Z,0
2017-08-31T04:34:32.588Z,0
2017-08-31T04:35:32.584Z,0
2017-08-31T04:36:32.615Z,0
2017-08-31T04:37:32.614Z,0
2017-08-31T04:38:32.615Z,0
2017-08-31T04:39:32.615Z,0
2017-08-31T04:40:32.602Z,0
2017-08-31T04:41:32.602Z,0
2017-08-31T04:42:32.633Z,0
2017-08-31T04:43:32.597Z,0
2017-08-31T04:44:32.634Z,0
2017-08-31T04:45:32.597Z,0
2017-08-31T04:47:32.627Z,0
2017-08-31T04:48:32.640Z,0
2017-08-31T04:49:32.638Z,0
2017-08-31T04:50:32.658Z,0
2017-08-31T04:51:32.606Z,0
2017-08-31T04:52:32.601Z,0
2017-08-31T04:53:32.698Z,0
2017-08-31T04:54:32.640Z,0
2017-08-31T04:55:32.660Z,0
2017-08-31T04:56:32.607Z,0
2017-08-31T04:57:32.699Z,0
2017-08-31T04:58:32.642Z,0
2017-08-31T04:59:32.674Z,0
2017-08-31T05:00:32.618Z,0
2017-08-31T05:01:32.638Z,0
2017-08-31T05:02:32.679Z,0
2017-08-31T05:03:32.672Z,0
2017-08-31T05:04:32.664Z,0
2017-08-31T05:05:32.703Z,0
2017-08-31T05:06:32.711Z,0
2017-08-31T05:07:32.666Z,0
2017-08-31T05:08:32.833Z,0
2017-08-31T05:09:32.716Z,0
2017-08-31T05:10:32.609Z,0
2017-08-31T05:11:32.636Z,0
2017-08-31T05:12:32.639Z,0
2017-08-31T05:13:32.672Z,0
2017-08-31T05:14:32.612Z,0
2017-08-31T05:15:32.640Z,0
2017-08-31T05:16:32.645Z,0
2017-08-31T05:17:32.613Z,0
2017-08-31T05:18:32.678Z,0
2017-08-31T05:19:32.682Z,0
2017-08-31T05:20:32.639Z,0
2017-08-31T05:21:32.637Z,0
2017-08-31T05:22:32.599Z,0
2017-08-31T05:23:32.691Z,0
2017-08-31T05:24:32.645Z,0
2017-08-31T05:25:32.618Z,0
2017-08-31T05:26:32.628Z,0
2017-08-31T05:27:32.657Z,0
2017-08-31T05:28:32.607Z,0
2017-08-31T05:29:32.620Z,0
2017-08-31T05:30:32.651Z,0
2017-08-31T05:31:32.722Z,0
2017-08-31T05:32:32.699Z,0
2017-08-31T05:33:32.722Z,0
2017-08-31T05:34:32.721Z,0
2017-08-31T05:35:32.722Z,0
2017-08-31T05:36:32.652Z,0
2017-08-31T05:37:32.731Z,0
2017-08-31T05:38:32.722Z,0
2017-08-31T05:39:32.655Z,0
2017-08-31T05:40:32.632Z,0
2017-08-31T05:41:32.651Z,0
2017-08-31T05:42:32.584Z,0
2017-08-31T05:43:32.653Z,0
2017-08-31T05:44:32.652Z,0
2017-08-31T05:45:32.658Z,0
2017-08-31T05:46:32.778Z,0
2017-08-31T05:47:32.660Z,0
2017-08-31T05:48:32.636Z,0
2017-08-31T05:49:32.637Z,20
2017-08-31T05:50:32.658Z,24
2017-08-31T05:51:32.635Z,26
2017-08-31T05:52:32.659Z,20
2017-08-31T05:53:32.725Z,18
2017-08-31T05:54:32.725Z,18
2017-08-31T05:55:32.682Z,15
2017-08-31T05:56:32.729Z,16
2017-08-31T05:57:32.709Z,18
2017-08-31T05:58:32.708Z,18
2017-08-31T05:59:32.644Z,19
2017-08-31T06:00:32.648Z,21
2017-08-31T06:01:32.715Z,21
2017-08-31T06:02:32.649Z,28
2017-08-31T06:03:32.708Z,30
2017-08-31T06:04:32.747Z,25
2017-08-31T06:05:32.738Z,18
2017-08-31T06:06:32.742Z,16
2017-08-31T06:07:32.678Z,19
2017-08-31T06:08:32.670Z,23
2017-08-31T06:09:32.673Z,21
2017-08-31T06:10:32.680Z,18
2017-08-31T06:11:32.701Z,13
2017-08-31T06:12:32.679Z,9
2017-08-31T06:13:32.670Z,7
2017-08-31T06:14:32.701Z,7
2017-08-31T06:15:32.673Z,7
2017-08-31T06:16:32.706Z,10
2017-08-31T06:17:32.673Z,9
2017-08-31T06:18:32.706Z,7
2017-08-31T06:19:32.651Z,7
2017-08-31T06:20:32.679Z,6
2017-08-31T06:21:32.754Z,5
2017-08-31T06:22:32.745Z,5
2017-08-31T06:23:32.715Z,5
2017-08-31T06:24:32.727Z,5
2017-08-31T06:25:32.683Z,5
2017-08-31T06:26:32.656Z,4
2017-08-31T06:27:32.724Z,0
2017-08-31T06:28:32.712Z,0
2017-08-31T06:29:32.691Z,0
2017-08-31T06:30:32.661Z,0
2017-08-31T06:31:32.699Z,0
2017-08-31T06:32:32.756Z,0
2017-08-31T06:33:32.686Z,0
2017-08-31T06:34:32.659Z,0
2017-08-31T06:35:32.693Z,0
2017-08-31T06:36:32.698Z,0
2017-08-31T06:37:32.663Z,0
2017-08-31T06:38:32.703Z,0
2017-08-31T06:39:32.721Z,17
2017-08-31T06:40:32.761Z,26
2017-08-31T06:41:32.737Z,35
2017-08-31T06:42:32.753Z,50
2017-08-31T06:43:32.689Z,64
2017-08-31T06:44:32.698Z,70
2017-08-31T06:45:32.730Z,70
2017-08-31T06:46:32.735Z,56
2017-08-31T06:47:32.734Z,43
2017-08-31T06:48:32.760Z,22
2017-08-31T06:49:32.726Z,11
2017-08-31T06:50:32.671Z,4
2017-08-31T06:51:32.705Z,0
2017-08-31T06:52:32.676Z,0
2017-08-31T06:53:32.707Z,0
2017-08-31T06:54:32.714Z,0
2017-08-31T06:55:32.778Z,0
2017-08-31T06:56:32.679Z,0
2017-08-31T06:57:32.769Z,0
2017-08-31T06:58:32.712Z,0
2017-08-31T06:59:32.773Z,0
2017-08-31T07:00:32.714Z,0
2017-08-31T07:01:32.679Z,0
2017-08-31T07:02:32.681Z,0
2017-08-31T07:03:32.752Z,0
2017-08-31T07:04:32.703Z,0
2017-08-31T07:05:32.774Z,0
2017-08-31T07:06:32.691Z,0
2017-08-31T07:07:32.740Z,0
2017-08-31T07:08:32.716Z,0
2017-08-31T07:09:32.709Z,0
2017-08-31T07:10:32.754Z,0
2017-08-31T07:11:32.743Z,0
2017-08-31T07:12:32.738Z,18
2017-08-31T07:13:32.685Z,18
2017-08-31T07:14:32.778Z,19
2017-08-31T07:15:32.780Z,20
2017-08-31T07:16:32.717Z,21
2017-08-31T07:17:32.690Z,20
2017-08-31T07:18:32.715Z,22
2017-08-31T07:19:32.711Z,23
2017-08-31T07:20:32.688Z,23
2017-08-31T07:21:32.629Z,25
2017-08-31T07:22:32.668Z,30
2017-08-31T07:23:32.704Z,37
2017-08-31T07:24:32.653Z,36
2017-08-31T07:25:32.687Z,37
2017-08-31T07:26:32.743Z,38
2017-08-31T07:27:32.707Z,40
2017-08-31T07:28:32.631Z,50
2017-08-31T07:29:32.691Z,65
2017-08-31T07:30:32.703Z,68
2017-08-31T07:31:32.753Z,68
2017-08-31T07:32:32.695Z,63
2017-08-31T07:33:32.749Z,47
2017-08-31T07:34:32.771Z,34
2017-08-31T07:35:32.760Z,27
2017-08-31T07:36:32.826Z,30
2017-08-31T07:37:32.847Z,34
2017-08-31T07:38:32.726Z,43
2017-08-31T07:39:32.879Z,45
2017-08-31T07:40:32.881Z,39
2017-08-31T07:41:32.833Z,34
2017-08-31T07:42:32.793Z,31
2017-08-31T07:43:32.786Z,29
2017-08-31T07:44:32.888Z,35
2017-08-31T07:45:32.814Z,47
2017-08-31T07:46:32.849Z,56
2017-08-31T07:47:32.672Z,58
2017-08-31T07:48:32.841Z,58
2017-08-31T07:49:32.681Z,64
2017-08-31T07:50:32.705Z,65
2017-08-31T07:51:32.732Z,86
2017-08-31T07:52:32.709Z,117
2017-08-31T07:53:32.737Z,133
2017-08-31T07:54:32.793Z,119
2017-08-31T07:55:32.777Z,106
2017-08-31T07:56:32.715Z,92
2017-08-31T07:57:32.738Z,97
2017-08-31T07:58:32.800Z,85
2017-08-31T07:59:32.788Z,64
2017-08-31T08:00:32.720Z,43
2017-08-31T08:01:32.806Z,28
2017-08-31T08:02:32.736Z,23
2017-08-31T08:03:32.738Z,28
2017-08-31T08:04:32.721Z,35
2017-08-31T08:05:32.768Z,37
2017-08-31T08:06:32.773Z,35
2017-08-31T08:07:32.754Z,31
2017-08-31T08:08:32.753Z,26
2017-08-31T08:09:32.715Z,24
2017-08-31T08:10:32.717Z,26
2017-08-31T08:11:32.720Z,26
2017-08-31T08:12:32.786Z,28
2017-08-31T08:13:32.723Z,36
2017-08-31T08:14:32.802Z,45
2017-08-31T08:15:32.756Z,48
2017-08-31T08:16:32.788Z,53
2017-08-31T08:17:32.759Z,58
2017-08-31T08:18:32.764Z,56
2017-08-31T08:19:32.759Z,55
2017-08-31T08:20:32.750Z,56
2017-08-31T08:21:32.716Z,56
2017-08-31T08:22:32.743Z,68
2017-08-31T08:23:32.780Z,87
2017-08-31T08:24:32.756Z,92
2017-08-31T08:25:32.779Z,85
2017-08-31T08:26:32.750Z,67
2017-08-31T08:27:32.749Z,55
2017-08-31T08:28:32.789Z,62
2017-08-31T08:29:32.721Z,95
2017-08-31T08:30:32.752Z,118
2017-08-31T08:31:32.808Z,132
2017-08-31T08:32:32.795Z,134
2017-08-31T08:33:32.737Z,126
2017-08-31T08:34:32.773Z,128
2017-08-31T08:35:32.760Z,132
2017-08-31T08:36:32.831Z,134
2017-08-31T08:37:32.763Z,150
2017-08-31T08:38:32.735Z,157
2017-08-31T08:39:32.783Z,155
2017-08-31T08:40:32.737Z,156
2017-08-31T08:41:32.759Z,169
2017-08-31T08:42:32.737Z,170
2017-08-31T08:43:32.749Z,155
2017-08-31T08:44:32.833Z,143
2017-08-31T08:45:32.766Z,139
2017-08-31T08:46:32.780Z,132
2017-08-31T08:47:32.771Z,137
2017-08-31T08:48:32.830Z,149
2017-08-31T08:49:32.743Z,153
2017-08-31T08:50:32.751Z,146
2017-08-31T08:51:32.737Z,130
2017-08-31T08:52:32.800Z,111
2017-08-31T08:53:32.766Z,113
2017-08-31T08:54:32.795Z,120
2017-08-31T08:55:32.804Z,135
2017-08-31T08:56:32.743Z,141
2017-08-31T08:57:32.808Z,152
2017-08-31T08:58:32.801Z,175
2017-08-31T08:59:32.735Z,192
2017-08-31T09:00:32.801Z,185
2017-08-31T09:01:32.826Z,173
2017-08-31T09:02:32.776Z,138
2017-08-31T09:03:32.769Z,115
2017-08-31T09:04:32.820Z,101
2017-08-31T09:05:32.847Z,104
2017-08-31T09:06:32.850Z,116
2017-08-31T09:07:32.827Z,110
2017-08-31T09:08:32.782Z,104
2017-08-31T09:09:32.754Z,92
2017-08-31T09:10:32.840Z,93
2017-08-31T09:11:32.829Z,87
2017-08-31T09:12:32.816Z,94
2017-08-31T09:13:32.757Z,118
2017-08-31T09:14:32.846Z,102
2017-08-31T09:15:32.834Z,104
2017-08-31T09:16:32.823Z,100
2017-08-31T09:17:32.785Z,96
2017-08-31T09:18:32.762Z,100
2017-08-31T09:19:32.827Z,111
2017-08-31T09:20:32.792Z,110
2017-08-31T09:21:32.766Z,137
2017-08-31T09:22:32.852Z,139
2017-08-31T09:23:32.855Z,146
2017-08-31T09:24:32.837Z,168
2017-08-31T09:25:32.765Z,168
2017-08-31T09:26:32.772Z,173
2017-08-31T09:27:32.838Z,167
2017-08-31T09:28:32.830Z,168
2017-08-31T09:29:32.788Z,178
2017-08-31T09:30:32.868Z,195
2017-08-31T09:31:32.766Z,210
2017-08-31T09:32:32.774Z,202
2017-08-31T09:33:32.792Z,184
2017-08-31T09:34:32.858Z,194
2017-08-31T09:35:32.859Z,209
2017-08-31T09:36:32.801Z,233
2017-08-31T09:37:32.830Z,260
2017-08-31T09:38:32.839Z,281
2017-08-31T09:39:32.863Z,302
2017-08-31T09:40:32.872Z,331
2017-08-31T09:41:32.829Z,374
2017-08-31T09:42:32.770Z,389
2017-08-31T09:43:32.828Z,379
2017-08-31T09:44:32.795Z,385
2017-08-31T09:45:32.770Z,352
2017-08-31T09:46:32.796Z,348
2017-08-31T09:47:32.806Z,371
2017-08-31T09:48:32.801Z,400
2017-08-31T09:49:32.829Z,414
2017-08-31T09:50:32.833Z,412
2017-08-31T09:51:32.780Z,414
2017-08-31T09:52:32.790Z,359
2017-08-31T09:53:32.801Z,267
2017-08-31T09:54:32.818Z,184
2017-08-31T09:55:32.881Z,193
2017-08-31T09:56:32.870Z,212
2017-08-31T09:57:32.885Z,240
2017-08-31T09:58:32.842Z,273
2017-08-31T09:59:32.778Z,327
2017-08-31T10:00:32.824Z,375
2017-08-31T10:01:32.793Z,379
2017-08-31T10:02:32.864Z,381
2017-08-31T10:03:32.795Z,421
2017-08-31T10:04:32.787Z,461
2017-08-31T10:05:32.809Z,461
2017-08-31T10:06:32.877Z,424
2017-08-31T10:07:32.801Z,406
2017-08-31T10:08:32.790Z,396
2017-08-31T10:09:32.795Z,391
2017-08-31T10:10:32.844Z,377
2017-08-31T10:11:32.871Z,358
2017-08-31T10:12:32.781Z,329
2017-08-31T10:13:32.812Z,296
2017-08-31T10:14:32.846Z,266
2017-08-31T10:15:32.847Z,245
2017-08-31T10:16:32.815Z,250
2017-08-31T10:17:32.820Z,274
2017-08-31T10:18:32.785Z,271
2017-08-31T10:19:32.817Z,266
2017-08-31T10:20:32.819Z,277
2017-08-31T10:21:32.869Z,291
2017-08-31T10:22:32.867Z,315
2017-08-31T10:23:32.804Z,342
2017-08-31T10:24:32.853Z,368
2017-08-31T10:25:32.887Z,389
2017-08-31T10:26:32.836Z,389
2017-08-31T10:27:32.801Z,386
2017-08-31T10:28:32.896Z,390
2017-08-31T10:29:32.898Z,395
2017-08-31T10:30:32.801Z,389
2017-08-31T10:31:32.880Z,375
2017-08-31T10:32:32.826Z,352
2017-08-31T10:33:32.759Z,331
2017-08-31T10:34:32.777Z,323
2017-08-31T10:35:32.829Z,337
2017-08-31T10:36:32.783Z,322
2017-08-31T10:37:32.821Z,306
2017-08-31T10:38:32.805Z,305
2017-08-31T10:39:32.829Z,312
2017-08-31T10:40:32.782Z,331
2017-08-31T10:41:32.830Z,343
2017-08-31T10:42:32.886Z,387
2017-08-31T10:43:32.818Z,419
2017-08-31T10:44:32.853Z,397
2017-08-31T10:45:32.847Z,399
2017-08-31T10:46:32.902Z,439
2017-08-31T10:47:32.855Z,481
2017-08-31T10:48:32.906Z,474
2017-08-31T10:49:32.839Z,450
2017-08-31T10:50:32.869Z,405
2017-08-31T10:51:32.889Z,398
2017-08-31T10:52:32.841Z,409
2017-08-31T10:53:32.853Z,367
2017-08-31T10:54:32.838Z,281
2017-08-31T10:55:32.925Z,214
2017-08-31T10:56:32.881Z,196
2017-08-31T10:57:32.824Z,205
2017-08-31T10:58:32.820Z,254
2017-08-31T10:59:32.829Z,260
2017-08-31T11:00:32.896Z,251
2017-08-31T11:01:32.911Z,252
2017-08-31T11:02:32.888Z,266
2017-08-31T11:03:32.827Z,325
2017-08-31T11:04:32.885Z,449
2017-08-31T11:05:32.849Z,500
2017-08-31T11:06:32.891Z,456
2017-08-31T11:07:32.832Z,417
2017-08-31T11:08:32.824Z,387
2017-08-31T11:09:32.914Z,392
2017-08-31T11:10:32.853Z,374
2017-08-31T11:11:32.861Z,326
2017-08-31T11:12:32.851Z,251
2017-08-31T11:13:32.796Z,204
2017-08-31T11:14:32.783Z,238
2017-08-31T11:15:32.861Z,375
2017-08-31T11:16:32.834Z,456
2017-08-31T11:17:32.891Z,497
2017-08-31T11:18:32.833Z,451
2017-08-31T11:19:32.854Z,412
2017-08-31T11:20:32.800Z,334
2017-08-31T11:21:32.854Z,309
2017-08-31T11:22:32.830Z,354
2017-08-31T11:23:32.869Z,299
2017-08-31T11:24:32.857Z,260
2017-08-31T11:25:32.858Z,241
2017-08-31T11:26:32.931Z,214
2017-08-31T11:27:33.124Z,196
2017-08-31T11:28:33.030Z,251
2017-08-31T11:29:32.984Z,351
2017-08-31T11:30:32.957Z,399
2017-08-31T11:31:32.928Z,445
2017-08-31T11:32:33.026Z,454
2017-08-31T11:33:32.951Z,478
2017-08-31T11:34:32.979Z,434
2017-08-31T11:35:32.871Z,444
2017-08-31T11:36:33.099Z,388
2017-08-31T11:37:32.995Z,336
2017-08-31T11:38:32.920Z,295
2017-08-31T11:39:32.872Z,267
2017-08-31T11:40:32.920Z,265
2017-08-31T11:41:32.870Z,296
2017-08-31T11:42:32.838Z,378
2017-08-31T11:43:32.873Z,434
2017-08-31T11:44:32.856Z,470
2017-08-31T11:45:32.850Z,431
2017-08-31T11:46:32.870Z,430
2017-08-31T11:47:32.826Z,500
2017-08-31T11:48:32.872Z,571
2017-08-31T11:49:32.880Z,540
2017-08-31T11:50:32.856Z,634
2017-08-31T11:51:32.875Z,1367
2017-08-31T11:52:32.873Z,1008
2017-08-31T11:53:32.915Z,817
2017-08-31T11:54:32.915Z,771
2017-08-31T11:55:32.887Z,913
2017-08-31T11:56:32.919Z,1255
2017-08-31T11:57:32.846Z,1251
2017-08-31T11:58:32.880Z,870
2017-08-31T11:59:32.827Z,738
2017-08-31T12:00:32.859Z,773
2017-08-31T12:01:32.862Z,1114
2017-08-31T12:02:32.851Z,769
2017-08-31T12:03:32.863Z,699
2017-08-31T12:04:32.885Z,635
2017-08-31T12:05:32.879Z,433
2017-08-31T12:06:32.916Z,466
2017-08-31T12:07:32.915Z,476
2017-08-31T12:08:32.858Z,389
2017-08-31T12:09:32.918Z,311
2017-08-31T12:10:32.889Z,251
2017-08-31T12:11:32.879Z,205
2017-08-31T12:12:32.854Z,167
2017-08-31T12:13:32.920Z,145
2017-08-31T12:14:32.929Z,143
2017-08-31T12:15:32.852Z,160
2017-08-31T12:16:32.888Z,201
2017-08-31T12:17:32.862Z,287
2017-08-31T12:18:32.857Z,467
2017-08-31T12:19:32.918Z,558
2017-08-31T12:21:32.862Z,1197
2017-08-31T12:22:32.962Z,620
2017-08-31T12:23:32.871Z,423
2017-08-31T12:24:32.945Z,1085
2017-08-31T12:25:32.910Z,1017
2017-08-31T12:26:32.969Z,1079
2017-08-31T12:27:32.961Z,840
2017-08-31T12:28:32.878Z,956
2017-08-31T12:29:32.913Z,1108
2017-08-31T12:30:32.911Z,1038
2017-08-31T12:31:32.963Z,1052
2017-08-31T12:32:32.903Z,1052
2017-08-31T12:33:32.852Z,550
2017-08-31T12:34:32.860Z,521
2017-08-31T12:35:32.904Z,462
2017-08-31T12:36:32.894Z,400
2017-08-31T12:37:32.896Z,343
2017-08-31T12:38:32.832Z,302
2017-08-31T12:39:32.900Z,273
2017-08-31T12:40:32.889Z,252
2017-08-31T12:41:32.885Z,231
2017-08-31T12:42:32.885Z,225
2017-08-31T12:43:33.017Z,224
2017-08-31T12:44:32.894Z,221
2017-08-31T12:45:32.860Z,216
2017-08-31T12:46:32.813Z,221
2017-08-31T12:47:32.875Z,239
2017-08-31T12:48:32.885Z,243
2017-08-31T12:49:32.861Z,243
2017-08-31T12:50:32.898Z,258
2017-08-31T12:51:32.884Z,294
2017-08-31T12:52:32.889Z,363
2017-08-31T12:53:32.887Z,269
2017-08-31T12:54:32.861Z,259
2017-08-31T12:55:32.920Z,271
2017-08-31T12:56:32.886Z,278
2017-08-31T12:57:32.919Z,298
2017-08-31T12:58:32.890Z,306
2017-08-31T12:59:32.913Z,180
2017-08-31T13:00:32.927Z,953
2017-08-31T13:01:32.864Z,928
2017-08-31T13:02:32.930Z,966
2017-08-31T13:03:32.930Z,896
2017-08-31T13:04:32.962Z,763
2017-08-31T13:05:32.931Z,857
2017-08-31T13:06:32.902Z,874
2017-08-31T13:07:32.920Z,884
2017-08-31T13:08:32.917Z,813
2017-08-31T13:09:32.987Z,935
2017-08-31T13:10:32.925Z,884
2017-08-31T13:11:32.985Z,876
2017-08-31T13:12:32.991Z,238
2017-08-31T13:13:32.904Z,230
2017-08-31T13:14:32.904Z,268
2017-08-31T13:15:32.967Z,329
2017-08-31T13:16:33.031Z,845
2017-08-31T13:17:32.903Z,691
2017-08-31T13:18:32.907Z,963
2017-08-31T13:19:32.966Z,1085
2017-08-31T13:20:32.996Z,1071
2017-08-31T13:21:32.965Z,1042
2017-08-31T13:22:32.925Z,513
2017-08-31T13:23:32.903Z,1039
2017-08-31T13:24:32.927Z,436
2017-08-31T13:25:32.876Z,469
2017-08-31T13:26:32.925Z,1019
2017-08-31T13:27:32.904Z,363
2017-08-31T13:28:32.932Z,293
2017-08-31T13:29:32.907Z,240
2017-08-31T13:30:32.905Z,190
2017-08-31T13:31:32.936Z,161
2017-08-31T13:32:32.876Z,159
2017-08-31T13:33:32.940Z,186
2017-08-31T13:34:32.973Z,199
2017-08-31T13:35:32.894Z,167
2017-08-31T13:36:32.938Z,108
2017-08-31T13:37:32.964Z,72
2017-08-31T13:38:32.981Z,59
2017-08-31T13:39:32.937Z,53
2017-08-31T13:40:32.892Z,48
2017-08-31T13:41:32.943Z,42
2017-08-31T13:42:32.923Z,41
2017-08-31T13:43:32.993Z,41
2017-08-31T13:44:32.980Z,47
2017-08-31T13:45:33.017Z,58
2017-08-31T13:46:32.956Z,75
2017-08-31T13:47:33.014Z,100
2017-08-31T13:48:32.922Z,147
2017-08-31T13:49:32.960Z,201
2017-08-31T13:50:32.923Z,257
2017-08-31T13:51:33.012Z,308
2017-08-31T13:52:32.955Z,388
2017-08-31T13:53:32.929Z,847
2017-08-31T13:54:32.922Z,898
2017-08-31T13:55:32.986Z,978
2017-08-31T13:56:32.951Z,921
2017-08-31T13:57:32.929Z,955
2017-08-31T13:58:33.017Z,954
2017-08-31T13:59:33.015Z,760
2017-08-31T14:00:32.927Z,769
2017-08-31T14:01:32.929Z,422
2017-08-31T14:02:32.930Z,354
2017-08-31T14:03:32.966Z,368
2017-08-31T14:04:32.969Z,385
2017-08-31T14:05:33.002Z,394
2017-08-31T14:06:32.987Z,409
2017-08-31T14:07:33.029Z,642
2017-08-31T14:08:32.932Z,437
2017-08-31T14:09:32.999Z,395
2017-08-31T14:10:32.970Z,366
2017-08-31T14:11:33.023Z,366
2017-08-31T14:12:32.969Z,364
2017-08-31T14:13:32.956Z,868
2017-08-31T14:14:32.991Z,549
2017-08-31T14:15:32.931Z,628
2017-08-31T14:16:32.998Z,398
2017-08-31T14:17:32.960Z,571
2017-08-31T14:18:32.995Z,639
2017-08-31T14:19:32.963Z,565